sensor_id;sensor_type;location;lat;lon;timestamp;P1;durP1;ratioP1;P2;durP2;ratioP2
57281;SDS011;43129;52.628;10.098;2023-06-22T00:02:01;11.88;;;10.68;;
57281;SDS011;43129;52.628;10.098;2023-06-22T00:04:29;11.43;;;10.32;;
57281;SDS011;43129;52.628;10.098;2023-06-22T00:06:57;12.63;;;10.80;;
57281;SDS011;43129;52.628;10.098;2023-06-22T00:09:23;12.73;;;11.07;;
57281;SDS011;43129;52.628;10.098;2023-06-22T00:11:49;12.15;;;10.90;;
57281;SDS011;43129;52.628;10.098;2023-06-22T00:14:19;11.55;;;10.35;;
57281;SDS011;43129;52.628;10.098;2023-06-22T00:16:45;13.57;;;10.65;;
57281;SDS011;43129;52.628;10.098;2023-06-22T00:19:16;12.10;;;10.90;;
57281;SDS011;43129;52.628;10.098;2023-06-22T00:21:41;12.30;;;10.70;;
57281;SDS011;43129;52.628;10.098;2023-06-22T00:24:08;12.90;;;11.55;;
57281;SDS011;43129;52.628;10.098;2023-06-22T00:26:35;13.48;;;12.18;;
57281;SDS011;43129;52.628;10.098;2023-06-22T00:29:01;14.00;;;12.60;;
57281;SDS011;43129;52.628;10.098;2023-06-22T00:31:27;13.43;;;11.88;;
57281;SDS011;43129;52.628;10.098;2023-06-22T00:33:57;13.45;;;12.05;;
57281;SDS011;43129;52.628;10.098;2023-06-22T00:36:23;12.68;;;11.40;;
57281;SDS011;43129;52.628;10.098;2023-06-22T00:38:49;12.15;;;10.95;;
57281;SDS011;43129;52.628;10.098;2023-06-22T00:41:15;11.30;;;10.15;;
57281;SDS011;43129;52.628;10.098;2023-06-22T00:43:42;11.82;;;10.38;;
57281;SDS011;43129;52.628;10.098;2023-06-22T00:46:07;11.00;;;9.90;;
57281;SDS011;43129;52.628;10.098;2023-06-22T00:48:33;14.18;;;10.38;;
57281;SDS011;43129;52.628;10.098;2023-06-22T00:51:02;13.20;;;11.00;;
57281;SDS011;43129;52.628;10.098;2023-06-22T00:53:28;12.00;;;10.45;;
57281;SDS011;43129;52.628;10.098;2023-06-22T00:55:53;11.93;;;10.82;;
57281;SDS011;43129;52.628;10.098;2023-06-22T00:58:23;12.05;;;9.65;;
57281;SDS011;43129;52.628;10.098;2023-06-22T01:00:51;11.45;;;10.35;;
57281;SDS011;43129;52.628;10.098;2023-06-22T01:03:16;11.25;;;10.15;;
57281;SDS011;43129;52.628;10.098;2023-06-22T01:05:45;11.00;;;9.95;;
57281;SDS011;43129;52.628;10.098;2023-06-22T01:11:03;12.60;;;10.20;;
57281;SDS011;43129;52.628;10.098;2023-06-22T01:16:30;11.10;;;10.00;;
57281;SDS011;43129;52.628;10.098;2023-06-22T01:19:13;10.75;;;9.63;;
57281;SDS011;43129;52.628;10.098;2023-06-22T01:21:43;10.88;;;9.80;;
57281;SDS011;43129;52.628;10.098;2023-06-22T01:24:30;11.80;;;10.52;;
57281;SDS011;43129;52.628;10.098;2023-06-22T01:29:58;10.75;;;9.35;;
57281;SDS011;43129;52.628;10.098;2023-06-22T01:32:32;9.82;;;8.93;;
57281;SDS011;43129;52.628;10.098;2023-06-22T01:35:03;11.75;;;9.60;;
57281;SDS011;43129;52.628;10.098;2023-06-22T01:37:32;9.57;;;8.57;;
57281;SDS011;43129;52.628;10.098;2023-06-22T01:39:59;9.63;;;8.63;;
57281;SDS011;43129;52.628;10.098;2023-06-22T01:42:28;10.38;;;9.35;;
57281;SDS011;43129;52.628;10.098;2023-06-22T01:44:55;10.55;;;9.45;;
57281;SDS011;43129;52.628;10.098;2023-06-22T01:47:26;11.25;;;9.48;;
57281;SDS011;43129;52.628;10.098;2023-06-22T01:49:52;11.32;;;9.20;;
57281;SDS011;43129;52.628;10.098;2023-06-22T01:52:18;9.20;;;8.30;;
57281;SDS011;43129;52.628;10.098;2023-06-22T01:54:48;11.05;;;9.07;;
57281;SDS011;43129;52.628;10.098;2023-06-22T01:57:14;9.40;;;8.40;;
57281;SDS011;43129;52.628;10.098;2023-06-22T01:59:46;9.27;;;8.35;;
57281;SDS011;43129;52.628;10.098;2023-06-22T02:02:28;9.00;;;8.10;;
57281;SDS011;43129;52.628;10.098;2023-06-22T02:05:10;9.98;;;8.57;;
57281;SDS011;43129;52.628;10.098;2023-06-22T02:07:47;8.70;;;7.80;;
57281;SDS011;43129;52.628;10.098;2023-06-22T02:10:26;9.30;;;8.38;;
57281;SDS011;43129;52.628;10.098;2023-06-22T02:12:53;9.45;;;8.23;;
57281;SDS011;43129;52.628;10.098;2023-06-22T02:15:25;8.68;;;7.78;;
57281;SDS011;43129;52.628;10.098;2023-06-22T02:17:51;9.45;;;8.50;;
57281;SDS011;43129;52.628;10.098;2023-06-22T02:20:17;10.07;;;8.45;;
57281;SDS011;43129;52.628;10.098;2023-06-22T02:22:43;8.75;;;7.85;;
57281;SDS011;43129;52.628;10.098;2023-06-22T02:25:10;9.63;;;8.73;;
57281;SDS011;43129;52.628;10.098;2023-06-22T02:27:38;8.82;;;7.93;;
57281;SDS011;43129;52.628;10.098;2023-06-22T02:30:06;9.02;;;8.23;;
57281;SDS011;43129;52.628;10.098;2023-06-22T02:32:35;8.23;;;7.35;;
57281;SDS011;43129;52.628;10.098;2023-06-22T02:35:07;10.13;;;7.47;;
57281;SDS011;43129;52.628;10.098;2023-06-22T02:37:35;8.30;;;7.47;;
57281;SDS011;43129;52.628;10.098;2023-06-22T02:42:35;9.13;;;7.80;;
57281;SDS011;43129;52.628;10.098;2023-06-22T02:45:04;8.23;;;7.43;;
57281;SDS011;43129;52.628;10.098;2023-06-22T02:47:30;8.00;;;7.20;;
57281;SDS011;43129;52.628;10.098;2023-06-22T02:49:58;7.82;;;7.00;;
57281;SDS011;43129;52.628;10.098;2023-06-22T02:52:24;8.68;;;7.32;;
57281;SDS011;43129;52.628;10.098;2023-06-22T02:54:52;8.93;;;7.18;;
57281;SDS011;43129;52.628;10.098;2023-06-22T02:57:20;7.85;;;7.05;;
57281;SDS011;43129;52.628;10.098;2023-06-22T02:59:45;9.35;;;7.57;;
57281;SDS011;43129;52.628;10.098;2023-06-22T03:02:16;7.88;;;7.07;;
57281;SDS011;43129;52.628;10.098;2023-06-22T03:04:46;8.80;;;7.00;;
57281;SDS011;43129;52.628;10.098;2023-06-22T03:07:13;9.40;;;7.55;;
57281;SDS011;43129;52.628;10.098;2023-06-22T03:09:42;8.73;;;7.65;;
57281;SDS011;43129;52.628;10.098;2023-06-22T03:12:08;8.73;;;7.93;;
57281;SDS011;43129;52.628;10.098;2023-06-22T03:14:36;12.20;;;7.75;;
57281;SDS011;43129;52.628;10.098;2023-06-22T03:17:04;10.32;;;7.80;;
57281;SDS011;43129;52.628;10.098;2023-06-22T03:19:30;8.45;;;7.55;;
57281;SDS011;43129;52.628;10.098;2023-06-22T03:21:57;9.10;;;7.57;;
57281;SDS011;43129;52.628;10.098;2023-06-22T03:24:24;10.75;;;9.07;;
57281;SDS011;43129;52.628;10.098;2023-06-22T03:26:50;12.45;;;11.15;;
57281;SDS011;43129;52.628;10.098;2023-06-22T03:29:17;12.05;;;9.90;;
57281;SDS011;43129;52.628;10.098;2023-06-22T03:31:43;10.57;;;9.57;;
57281;SDS011;43129;52.628;10.098;2023-06-22T03:34:11;11.57;;;8.73;;
57281;SDS011;43129;52.628;10.098;2023-06-22T03:36:39;9.45;;;8.45;;
57281;SDS011;43129;52.628;10.098;2023-06-22T03:39:05;9.40;;;8.48;;
57281;SDS011;43129;52.628;10.098;2023-06-22T03:41:31;9.68;;;8.68;;
57281;SDS011;43129;52.628;10.098;2023-06-22T03:43:56;10.30;;;9.23;;
57281;SDS011;43129;52.628;10.098;2023-06-22T03:46:22;10.20;;;8.93;;
57281;SDS011;43129;52.628;10.098;2023-06-22T03:48:47;9.95;;;8.85;;
57281;SDS011;43129;52.628;10.098;2023-06-22T03:51:13;8.93;;;8.02;;
57281;SDS011;43129;52.628;10.098;2023-06-22T03:53:39;9.63;;;8.70;;
57281;SDS011;43129;52.628;10.098;2023-06-22T03:56:04;10.48;;;9.48;;
57281;SDS011;43129;52.628;10.098;2023-06-22T03:58:30;9.82;;;8.85;;
57281;SDS011;43129;52.628;10.098;2023-06-22T04:00:58;9.13;;;8.23;;
57281;SDS011;43129;52.628;10.098;2023-06-22T04:03:25;9.55;;;8.55;;
57281;SDS011;43129;52.628;10.098;2023-06-22T04:05:50;9.82;;;8.85;;
57281;SDS011;43129;52.628;10.098;2023-06-22T04:08:16;12.50;;;8.90;;
57281;SDS011;43129;52.628;10.098;2023-06-22T04:10:43;8.93;;;8.05;;
57281;SDS011;43129;52.628;10.098;2023-06-22T04:13:11;13.48;;;9.38;;
57281;SDS011;43129;52.628;10.098;2023-06-22T04:15:36;9.73;;;8.43;;
57281;SDS011;43129;52.628;10.098;2023-06-22T04:18:02;11.93;;;8.80;;
57281;SDS011;43129;52.628;10.098;2023-06-22T04:20:28;11.27;;;8.07;;
57281;SDS011;43129;52.628;10.098;2023-06-22T04:22:58;15.95;;;9.15;;
57281;SDS011;43129;52.628;10.098;2023-06-22T04:25:26;10.57;;;8.60;;
57281;SDS011;43129;52.628;10.098;2023-06-22T04:27:52;9.10;;;8.20;;
57281;SDS011;43129;52.628;10.098;2023-06-22T04:30:17;10.90;;;7.32;;
57281;SDS011;43129;52.628;10.098;2023-06-22T04:32:43;10.23;;;8.00;;
57281;SDS011;43129;52.628;10.098;2023-06-22T04:35:21;9.95;;;7.53;;
57281;SDS011;43129;52.628;10.098;2023-06-22T04:37:49;8.70;;;7.80;;
57281;SDS011;43129;52.628;10.098;2023-06-22T04:40:19;9.43;;;8.52;;
57281;SDS011;43129;52.628;10.098;2023-06-22T04:42:48;8.13;;;7.18;;
57281;SDS011;43129;52.628;10.098;2023-06-22T04:45:18;8.68;;;7.50;;
57281;SDS011;43129;52.628;10.098;2023-06-22T04:47:45;8.80;;;7.90;;
57281;SDS011;43129;52.628;10.098;2023-06-22T04:50:13;8.07;;;7.38;;
57281;SDS011;43129;52.628;10.098;2023-06-22T04:52:39;8.15;;;7.18;;
57281;SDS011;43129;52.628;10.098;2023-06-22T04:55:07;10.02;;;8.35;;
57281;SDS011;43129;52.628;10.098;2023-06-22T04:57:36;9.50;;;8.18;;
57281;SDS011;43129;52.628;10.098;2023-06-22T05:00:04;10.40;;;9.35;;
57281;SDS011;43129;52.628;10.098;2023-06-22T05:02:42;8.82;;;6.93;;
57281;SDS011;43129;52.628;10.098;2023-06-22T05:05:09;12.00;;;7.88;;
57281;SDS011;43129;52.628;10.098;2023-06-22T05:07:38;9.43;;;7.03;;
57281;SDS011;43129;52.628;10.098;2023-06-22T05:10:08;11.57;;;6.95;;
57281;SDS011;43129;52.628;10.098;2023-06-22T05:12:40;10.32;;;6.82;;
57281;SDS011;43129;52.628;10.098;2023-06-22T05:15:08;7.75;;;7.05;;
57281;SDS011;43129;52.628;10.098;2023-06-22T05:17:39;6.80;;;6.20;;
57281;SDS011;43129;52.628;10.098;2023-06-22T05:20:08;8.30;;;6.60;;
57281;SDS011;43129;52.628;10.098;2023-06-22T05:22:37;8.55;;;7.05;;
57281;SDS011;43129;52.628;10.098;2023-06-22T05:25:05;7.80;;;7.00;;
57281;SDS011;43129;52.628;10.098;2023-06-22T05:27:33;8.63;;;6.70;;
57281;SDS011;43129;52.628;10.098;2023-06-22T05:30:05;7.47;;;6.53;;
57281;SDS011;43129;52.628;10.098;2023-06-22T05:32:32;9.60;;;6.50;;
57281;SDS011;43129;52.628;10.098;2023-06-22T05:34:58;10.13;;;5.93;;
57281;SDS011;43129;52.628;10.098;2023-06-22T05:37:24;8.13;;;6.43;;
57281;SDS011;43129;52.628;10.098;2023-06-22T05:39:53;6.80;;;6.03;;
57281;SDS011;43129;52.628;10.098;2023-06-22T05:42:20;6.88;;;5.97;;
57281;SDS011;43129;52.628;10.098;2023-06-22T05:44:46;7.78;;;5.75;;
57281;SDS011;43129;52.628;10.098;2023-06-22T05:47:14;6.18;;;5.47;;
57281;SDS011;43129;52.628;10.098;2023-06-22T05:49:40;6.65;;;6.00;;
57281;SDS011;43129;52.628;10.098;2023-06-22T05:52:06;7.63;;;6.07;;
57281;SDS011;43129;52.628;10.098;2023-06-22T05:54:31;8.18;;;6.30;;
57281;SDS011;43129;52.628;10.098;2023-06-22T05:57:00;7.97;;;7.07;;
57281;SDS011;43129;52.628;10.098;2023-06-22T05:59:26;6.85;;;6.20;;
57281;SDS011;43129;52.628;10.098;2023-06-22T06:01:54;8.13;;;5.47;;
57281;SDS011;43129;52.628;10.098;2023-06-22T06:04:20;6.32;;;5.40;;
57281;SDS011;43129;52.628;10.098;2023-06-22T06:06:48;6.80;;;5.80;;
57281;SDS011;43129;52.628;10.098;2023-06-22T06:09:14;7.22;;;5.00;;
57281;SDS011;43129;52.628;10.098;2023-06-22T06:11:39;9.82;;;5.40;;
57281;SDS011;43129;52.628;10.098;2023-06-22T06:14:05;6.60;;;5.00;;
57281;SDS011;43129;52.628;10.098;2023-06-22T06:16:33;7.28;;;6.05;;
57281;SDS011;43129;52.628;10.098;2023-06-22T06:19:01;7.35;;;5.57;;
57281;SDS011;43129;52.628;10.098;2023-06-22T06:21:27;9.60;;;5.68;;
57281;SDS011;43129;52.628;10.098;2023-06-22T06:23:52;8.43;;;5.60;;
57281;SDS011;43129;52.628;10.098;2023-06-22T06:26:18;6.05;;;5.43;;
57281;SDS011;43129;52.628;10.098;2023-06-22T06:28:55;6.75;;;5.35;;
57281;SDS011;43129;52.628;10.098;2023-06-22T06:31:22;10.50;;;5.82;;
57281;SDS011;43129;52.628;10.098;2023-06-22T06:33:52;6.97;;;5.82;;
57281;SDS011;43129;52.628;10.098;2023-06-22T06:36:19;8.23;;;6.43;;
57281;SDS011;43129;52.628;10.098;2023-06-22T06:38:44;6.13;;;5.53;;
57281;SDS011;43129;52.628;10.098;2023-06-22T06:41:12;6.97;;;5.75;;
57281;SDS011;43129;52.628;10.098;2023-06-22T06:43:38;7.30;;;6.10;;
57281;SDS011;43129;52.628;10.098;2023-06-22T06:46:04;8.38;;;5.90;;
57281;SDS011;43129;52.628;10.098;2023-06-22T06:48:31;8.40;;;6.13;;
57281;SDS011;43129;52.628;10.098;2023-06-22T06:50:59;7.90;;;6.80;;
57281;SDS011;43129;52.628;10.098;2023-06-22T06:53:25;6.70;;;6.00;;
57281;SDS011;43129;52.628;10.098;2023-06-22T06:55:53;7.30;;;6.47;;
57281;SDS011;43129;52.628;10.098;2023-06-22T06:58:19;6.05;;;5.55;;
57281;SDS011;43129;52.628;10.098;2023-06-22T07:00:48;7.25;;;5.93;;
57281;SDS011;43129;52.628;10.098;2023-06-22T07:03:16;6.88;;;6.03;;
57281;SDS011;43129;52.628;10.098;2023-06-22T07:05:42;7.32;;;5.82;;
57281;SDS011;43129;52.628;10.098;2023-06-22T07:08:07;8.38;;;5.85;;
57281;SDS011;43129;52.628;10.098;2023-06-22T07:10:35;6.72;;;5.47;;
57281;SDS011;43129;52.628;10.098;2023-06-22T07:13:01;6.10;;;5.38;;
57281;SDS011;43129;52.628;10.098;2023-06-22T07:15:29;6.55;;;5.57;;
57281;SDS011;43129;52.628;10.098;2023-06-22T07:17:54;7.35;;;6.38;;
57281;SDS011;43129;52.628;10.098;2023-06-22T07:20:22;8.18;;;5.95;;
57281;SDS011;43129;52.628;10.098;2023-06-22T07:22:48;6.38;;;5.22;;
57281;SDS011;43129;52.628;10.098;2023-06-22T07:25:13;6.57;;;5.72;;
57281;SDS011;43129;52.628;10.098;2023-06-22T07:27:42;10.57;;;5.45;;
57281;SDS011;43129;52.628;10.098;2023-06-22T07:30:23;7.15;;;5.35;;
57281;SDS011;43129;52.628;10.098;2023-06-22T07:32:49;6.78;;;5.45;;
57281;SDS011;43129;52.628;10.098;2023-06-22T07:35:15;6.07;;;5.43;;
57281;SDS011;43129;52.628;10.098;2023-06-22T07:37:46;8.80;;;5.47;;
57281;SDS011;43129;52.628;10.098;2023-06-22T07:40:12;6.43;;;5.82;;
57281;SDS011;43129;52.628;10.098;2023-06-22T07:42:38;6.57;;;5.53;;
57281;SDS011;43129;52.628;10.098;2023-06-22T07:45:06;5.57;;;4.68;;
57281;SDS011;43129;52.628;10.098;2023-06-22T07:47:33;7.85;;;6.07;;
57281;SDS011;43129;52.628;10.098;2023-06-22T07:50:04;6.45;;;5.32;;
57281;SDS011;43129;52.628;10.098;2023-06-22T07:52:30;7.60;;;5.68;;
57281;SDS011;43129;52.628;10.098;2023-06-22T07:54:56;7.05;;;5.35;;
57281;SDS011;43129;52.628;10.098;2023-06-22T07:57:22;11.10;;;5.82;;
57281;SDS011;43129;52.628;10.098;2023-06-22T07:59:57;10.43;;;9.32;;
57281;SDS011;43129;52.628;10.098;2023-06-22T08:02:25;9.40;;;7.70;;
57281;SDS011;43129;52.628;10.098;2023-06-22T08:04:52;7.95;;;7.15;;
57281;SDS011;43129;52.628;10.098;2023-06-22T08:07:18;7.68;;;6.20;;
57281;SDS011;43129;52.628;10.098;2023-06-22T08:09:47;12.02;;;7.15;;
57281;SDS011;43129;52.628;10.098;2023-06-22T08:12:14;7.22;;;6.18;;
57281;SDS011;43129;52.628;10.098;2023-06-22T08:14:39;8.13;;;6.05;;
57281;SDS011;43129;52.628;10.098;2023-06-22T08:17:09;7.00;;;6.25;;
57281;SDS011;43129;52.628;10.098;2023-06-22T08:19:37;8.38;;;6.40;;
57281;SDS011;43129;52.628;10.098;2023-06-22T08:22:03;9.27;;;7.40;;
57281;SDS011;43129;52.628;10.098;2023-06-22T08:24:28;9.35;;;7.35;;
57281;SDS011;43129;52.628;10.098;2023-06-22T08:26:55;10.35;;;6.82;;
57281;SDS011;43129;52.628;10.098;2023-06-22T08:29:23;9.55;;;8.18;;
57281;SDS011;43129;52.628;10.098;2023-06-22T08:31:51;7.97;;;6.90;;
57281;SDS011;43129;52.628;10.098;2023-06-22T08:34:17;9.88;;;7.28;;
57281;SDS011;43129;52.628;10.098;2023-06-22T08:36:46;10.07;;;7.28;;
57281;SDS011;43129;52.628;10.098;2023-06-22T08:39:19;10.50;;;7.82;;
57281;SDS011;43129;52.628;10.098;2023-06-22T08:41:45;10.63;;;9.60;;
57281;SDS011;43129;52.628;10.098;2023-06-22T08:44:17;10.60;;;9.48;;
57281;SDS011;43129;52.628;10.098;2023-06-22T08:46:43;10.15;;;9.25;;
57281;SDS011;43129;52.628;10.098;2023-06-22T08:49:09;10.25;;;7.68;;
57281;SDS011;43129;52.628;10.098;2023-06-22T08:51:37;11.25;;;8.35;;
57281;SDS011;43129;52.628;10.098;2023-06-22T08:54:03;9.45;;;8.50;;
57281;SDS011;43129;52.628;10.098;2023-06-22T08:56:28;16.77;;;15.07;;
57281;SDS011;43129;52.628;10.098;2023-06-22T08:58:54;10.93;;;8.85;;
57281;SDS011;43129;52.628;10.098;2023-06-22T09:01:20;9.85;;;8.88;;
57281;SDS011;43129;52.628;10.098;2023-06-22T09:03:45;9.50;;;8.60;;
57281;SDS011;43129;52.628;10.098;2023-06-22T09:06:19;10.82;;;9.10;;
57281;SDS011;43129;52.628;10.098;2023-06-22T09:08:46;10.05;;;8.93;;
57281;SDS011;43129;52.628;10.098;2023-06-22T09:11:14;9.40;;;8.43;;
57281;SDS011;43129;52.628;10.098;2023-06-22T09:13:40;11.27;;;8.77;;
57281;SDS011;43129;52.628;10.098;2023-06-22T09:16:06;10.35;;;9.40;;
57281;SDS011;43129;52.628;10.098;2023-06-22T09:18:31;9.65;;;8.70;;
57281;SDS011;43129;52.628;10.098;2023-06-22T09:20:58;10.38;;;9.38;;
57281;SDS011;43129;52.628;10.098;2023-06-22T09:23:24;9.63;;;8.68;;
57281;SDS011;43129;52.628;10.098;2023-06-22T09:25:50;9.95;;;9.05;;
57281;SDS011;43129;52.628;10.098;2023-06-22T09:28:18;10.88;;;9.80;;
57281;SDS011;43129;52.628;10.098;2023-06-22T09:30:43;10.88;;;9.82;;
57281;SDS011;43129;52.628;10.098;2023-06-22T09:33:09;12.18;;;10.98;;
57281;SDS011;43129;52.628;10.098;2023-06-22T09:35:35;12.10;;;11.00;;
57281;SDS011;43129;52.628;10.098;2023-06-22T09:38:01;10.38;;;9.38;;
57281;SDS011;43129;52.628;10.098;2023-06-22T09:40:26;10.32;;;9.23;;
57281;SDS011;43129;52.628;10.098;2023-06-22T09:42:52;13.10;;;11.80;;
57281;SDS011;43129;52.628;10.098;2023-06-22T09:45:20;12.10;;;11.10;;
57281;SDS011;43129;52.628;10.098;2023-06-22T09:47:45;11.27;;;10.07;;
57281;SDS011;43129;52.628;10.098;2023-06-22T09:50:11;10.88;;;9.82;;
57281;SDS011;43129;52.628;10.098;2023-06-22T09:52:39;11.07;;;9.98;;
57281;SDS011;43129;52.628;10.098;2023-06-22T09:55:09;10.93;;;9.90;;
57281;SDS011;43129;52.628;10.098;2023-06-22T09:57:37;11.20;;;10.20;;
57281;SDS011;43129;52.628;10.098;2023-06-22T10:00:05;12.15;;;11.02;;
57281;SDS011;43129;52.628;10.098;2023-06-22T10:02:34;12.65;;;11.20;;
57281;SDS011;43129;52.628;10.098;2023-06-22T10:05:02;12.25;;;11.05;;
57281;SDS011;43129;52.628;10.098;2023-06-22T10:07:30;12.10;;;11.00;;
57281;SDS011;43129;52.628;10.098;2023-06-22T10:09:56;12.05;;;10.95;;
57281;SDS011;43129;52.628;10.098;2023-06-22T10:12:21;12.43;;;11.23;;
57281;SDS011;43129;52.628;10.098;2023-06-22T10:14:47;11.93;;;10.82;;
57281;SDS011;43129;52.628;10.098;2023-06-22T10:17:12;13.18;;;11.98;;
57281;SDS011;43129;52.628;10.098;2023-06-22T10:19:38;12.40;;;11.13;;
57281;SDS011;43129;52.628;10.098;2023-06-22T10:22:06;19.70;;;17.80;;
57281;SDS011;43129;52.628;10.098;2023-06-22T10:24:31;13.48;;;12.18;;
57281;SDS011;43129;52.628;10.098;2023-06-22T10:26:59;11.68;;;10.68;;
57281;SDS011;43129;52.628;10.098;2023-06-22T10:29:27;13.27;;;12.05;;
57281;SDS011;43129;52.628;10.098;2023-06-22T10:31:53;12.25;;;11.15;;
57281;SDS011;43129;52.628;10.098;2023-06-22T10:34:23;12.38;;;11.27;;
57281;SDS011;43129;52.628;10.098;2023-06-22T10:36:51;12.75;;;11.38;;
57281;SDS011;43129;52.628;10.098;2023-06-22T10:39:18;13.07;;;11.85;;
57281;SDS011;43129;52.628;10.098;2023-06-22T10:41:45;13.75;;;12.45;;
57281;SDS011;43129;52.628;10.098;2023-06-22T10:44:13;14.35;;;13.05;;
57281;SDS011;43129;52.628;10.098;2023-06-22T10:46:39;12.85;;;11.52;;
57281;SDS011;43129;52.628;10.098;2023-06-22T10:49:05;12.50;;;11.40;;
57281;SDS011;43129;52.628;10.098;2023-06-22T10:51:35;11.13;;;10.13;;
57281;SDS011;43129;52.628;10.098;2023-06-22T10:54:01;13.13;;;11.82;;
57281;SDS011;43129;52.628;10.098;2023-06-22T10:56:26;12.43;;;11.25;;
57281;SDS011;43129;52.628;10.098;2023-06-22T10:58:52;12.40;;;11.13;;
57281;SDS011;43129;52.628;10.098;2023-06-22T11:01:17;13.75;;;11.15;;
57281;SDS011;43129;52.628;10.098;2023-06-22T11:03:45;13.38;;;12.05;;
57281;SDS011;43129;52.628;10.098;2023-06-22T11:06:13;14.18;;;12.77;;
57281;SDS011;43129;52.628;10.098;2023-06-22T11:08:39;13.30;;;11.93;;
57281;SDS011;43129;52.628;10.098;2023-06-22T11:11:07;13.48;;;12.27;;
57281;SDS011;43129;52.628;10.098;2023-06-22T11:13:36;13.10;;;11.85;;
57281;SDS011;43129;52.628;10.098;2023-06-22T11:16:03;13.25;;;12.15;;
57281;SDS011;43129;52.628;10.098;2023-06-22T11:18:34;12.77;;;11.20;;
57281;SDS011;43129;52.628;10.098;2023-06-22T11:21:00;12.27;;;11.07;;
57281;SDS011;43129;52.628;10.098;2023-06-22T11:23:25;12.93;;;11.50;;
57281;SDS011;43129;52.628;10.098;2023-06-22T11:25:54;13.07;;;10.82;;
57281;SDS011;43129;52.628;10.098;2023-06-22T11:28:22;12.85;;;11.57;;
57281;SDS011;43129;52.628;10.098;2023-06-22T11:30:51;12.15;;;10.98;;
57281;SDS011;43129;52.628;10.098;2023-06-22T11:33:19;14.20;;;11.32;;
57281;SDS011;43129;52.628;10.098;2023-06-22T11:35:47;13.20;;;11.88;;
57281;SDS011;43129;52.628;10.098;2023-06-22T11:38:12;12.15;;;10.98;;
57281;SDS011;43129;52.628;10.098;2023-06-22T11:40:40;12.05;;;11.00;;
57281;SDS011;43129;52.628;10.098;2023-06-22T11:43:08;13.10;;;11.13;;
57281;SDS011;43129;52.628;10.098;2023-06-22T11:45:34;13.80;;;11.48;;
57281;SDS011;43129;52.628;10.098;2023-06-22T11:48:00;13.70;;;11.90;;
57281;SDS011;43129;52.628;10.098;2023-06-22T11:50:25;12.10;;;10.88;;
57281;SDS011;43129;52.628;10.098;2023-06-22T11:52:51;12.52;;;11.38;;
57281;SDS011;43129;52.628;10.098;2023-06-22T11:55:17;12.57;;;11.35;;
57281;SDS011;43129;52.628;10.098;2023-06-22T11:57:53;11.68;;;10.57;;
57281;SDS011;43129;52.628;10.098;2023-06-22T12:00:21;12.95;;;11.65;;
57281;SDS011;43129;52.628;10.098;2023-06-22T12:02:50;12.63;;;11.35;;
57281;SDS011;43129;52.628;10.098;2023-06-22T12:05:19;12.40;;;11.30;;
57281;SDS011;43129;52.628;10.098;2023-06-22T12:07:52;13.13;;;11.90;;
57281;SDS011;43129;52.628;10.098;2023-06-22T12:10:19;12.30;;;11.15;;
57281;SDS011;43129;52.628;10.098;2023-06-22T12:12:46;12.13;;;11.02;;
57281;SDS011;43129;52.628;10.098;2023-06-22T12:15:12;10.95;;;9.95;;
57281;SDS011;43129;52.628;10.098;2023-06-22T12:17:38;11.98;;;10.90;;
57281;SDS011;43129;52.628;10.098;2023-06-22T12:20:04;12.02;;;10.45;;
57281;SDS011;43129;52.628;10.098;2023-06-22T12:22:34;12.60;;;11.30;;
57281;SDS011;43129;52.628;10.098;2023-06-22T12:25:02;12.00;;;10.90;;
57281;SDS011;43129;52.628;10.098;2023-06-22T12:27:31;12.20;;;11.20;;
57281;SDS011;43129;52.628;10.098;2023-06-22T12:29:56;12.40;;;11.05;;
57281;SDS011;43129;52.628;10.098;2023-06-22T12:32:22;12.00;;;10.90;;
57281;SDS011;43129;52.628;10.098;2023-06-22T12:34:50;12.02;;;10.82;;
57281;SDS011;43129;52.628;10.098;2023-06-22T12:37:18;10.52;;;9.63;;
57281;SDS011;43129;52.628;10.098;2023-06-22T12:39:46;11.60;;;10.40;;
57281;SDS011;43129;52.628;10.098;2023-06-22T12:42:16;11.25;;;10.25;;
57281;SDS011;43129;52.628;10.098;2023-06-22T12:44:46;11.63;;;10.35;;
57281;SDS011;43129;52.628;10.098;2023-06-22T12:47:11;11.80;;;10.70;;
57281;SDS011;43129;52.628;10.098;2023-06-22T12:49:38;10.75;;;9.68;;
57281;SDS011;43129;52.628;10.098;2023-06-22T12:52:08;11.38;;;10.32;;
57281;SDS011;43129;52.628;10.098;2023-06-22T12:54:35;11.40;;;10.32;;
57281;SDS011;43129;52.628;10.098;2023-06-22T12:57:01;11.20;;;10.10;;
57281;SDS011;43129;52.628;10.098;2023-06-22T12:59:26;13.07;;;10.95;;
57281;SDS011;43129;52.628;10.098;2023-06-22T13:01:52;17.48;;;15.68;;
57281;SDS011;43129;52.628;10.098;2023-06-22T13:04:20;22.90;;;20.50;;
57281;SDS011;43129;52.628;10.098;2023-06-22T13:06:48;20.25;;;15.55;;
57281;SDS011;43129;52.628;10.098;2023-06-22T13:09:18;11.25;;;10.15;;
57281;SDS011;43129;52.628;10.098;2023-06-22T13:11:44;12.02;;;10.93;;
57281;SDS011;43129;52.628;10.098;2023-06-22T13:14:12;13.10;;;11.80;;
57281;SDS011;43129;52.628;10.098;2023-06-22T13:16:38;12.10;;;10.95;;
57281;SDS011;43129;52.628;10.098;2023-06-22T13:19:03;12.73;;;11.43;;
57281;SDS011;43129;52.628;10.098;2023-06-22T13:21:30;11.73;;;10.52;;
57281;SDS011;43129;52.628;10.098;2023-06-22T13:23:58;12.52;;;11.32;;
57281;SDS011;43129;52.628;10.098;2023-06-22T13:26:26;12.52;;;10.00;;
57281;SDS011;43129;52.628;10.098;2023-06-22T13:28:53;11.65;;;9.77;;
57281;SDS011;43129;52.628;10.098;2023-06-22T13:31:19;11.95;;;9.32;;
57281;SDS011;43129;52.628;10.098;2023-06-22T13:33:45;11.35;;;10.13;;
57281;SDS011;43129;52.628;10.098;2023-06-22T13:36:13;14.10;;;10.43;;
57281;SDS011;43129;52.628;10.098;2023-06-22T13:38:38;10.32;;;9.32;;
57281;SDS011;43129;52.628;10.098;2023-06-22T13:41:06;11.35;;;10.00;;
57281;SDS011;43129;52.628;10.098;2023-06-22T13:43:34;10.95;;;9.70;;
57281;SDS011;43129;52.628;10.098;2023-06-22T13:46:00;11.77;;;10.60;;
57281;SDS011;43129;52.628;10.098;2023-06-22T13:48:25;18.60;;;16.90;;
57281;SDS011;43129;52.628;10.098;2023-06-22T13:50:53;14.48;;;12.88;;
57281;SDS011;43129;52.628;10.098;2023-06-22T13:53:24;13.15;;;11.85;;
57281;SDS011;43129;52.628;10.098;2023-06-22T13:55:52;18.80;;;12.15;;
57281;SDS011;43129;52.628;10.098;2023-06-22T13:58:18;12.32;;;11.13;;
57281;SDS011;43129;52.628;10.098;2023-06-22T14:00:45;14.05;;;10.75;;
57281;SDS011;43129;52.628;10.098;2023-06-22T14:03:13;14.48;;;12.10;;
57281;SDS011;43129;52.628;10.098;2023-06-22T14:05:43;11.63;;;10.52;;
57281;SDS011;43129;52.628;10.098;2023-06-22T14:08:09;12.23;;;11.05;;
57281;SDS011;43129;52.628;10.098;2023-06-22T14:10:35;12.05;;;10.85;;
57281;SDS011;43129;52.628;10.098;2023-06-22T14:13:00;15.93;;;11.82;;
57281;SDS011;43129;52.628;10.098;2023-06-22T14:15:26;18.02;;;15.65;;
57281;SDS011;43129;52.628;10.098;2023-06-22T14:17:51;22.52;;;20.10;;
57281;SDS011;43129;52.628;10.098;2023-06-22T14:20:17;13.43;;;11.43;;
57281;SDS011;43129;52.628;10.098;2023-06-22T14:22:43;12.73;;;11.43;;
57281;SDS011;43129;52.628;10.098;2023-06-22T14:25:09;12.52;;;11.25;;
57281;SDS011;43129;52.628;10.098;2023-06-22T14:27:36;12.27;;;11.10;;
57281;SDS011;43129;52.628;10.098;2023-06-22T14:30:07;11.55;;;10.18;;
57281;SDS011;43129;52.628;10.098;2023-06-22T14:32:33;13.57;;;11.52;;
57281;SDS011;43129;52.628;10.098;2023-06-22T14:35:02;13.02;;;11.82;;